Time;durP1;ratioP1;P1;durP2;ratioP2;P2;SDS_P1;SDS_P2;PMS_P1;PMS_P2;Temp;Humidity;BMP_temperature;BMP_pressure;BME280_temperature;BME280_humidity;BME280_pressure;Samples;Min_cycle;Max_cycle;Signal;HPM_P1;HPM_P2
2022/12/18 00:01:39;;;;;;;;;24.50;22.75;;;;;;;;5111472;28;8781;-75
2022/12/18 00:04:05;;;;;;;;;21.50;21.00;;;;;;;;5111537;28;8861;-75
2022/12/18 00:06:31;;;;;;;;;22.50;21.00;;;;;;;;5111637;28;8805;-75
2022/12/18 00:08:57;;;;;;;;;25.25;18.00;;;;;;;;5111662;28;11470;-75
2022/12/18 00:11:24;;;;;;;;;21.25;18.00;;;;;;;;5112193;28;8774;-76
2022/12/18 00:13:50;;;;;;;;;27.00;19.75;;;;;;;;5111709;28;11557;-76
2022/12/18 00:16:19;;;;;;;;;18.00;16.50;;;;;;;;5111396;28;11502;-76
2022/12/18 00:18:44;;;;;;;;;19.25;18.00;;;;;;;;5111542;28;9593;-75
2022/12/18 00:21:11;;;;;;;;;20.25;14.50;;;;;;;;5111682;28;11438;-75
2022/12/18 00:23:37;;;;;;;;;24.25;22.25;;;;;;;;5110389;28;8828;-76
2022/12/18 00:26:06;;;;;;;;;20.75;17.50;;;;;;;;5111435;28;11561;-76
2022/12/18 00:28:31;;;;;;;;;18.67;17.33;;;;;;;;5111540;28;8842;-76
2022/12/18 00:31:00;;;;;;;;;16.33;16.00;;;;;;;;5111513;28;11451;-76
2022/12/18 00:33:25;;;;;;;;;17.33;16.33;;;;;;;;5111491;28;8882;-76
2022/12/18 00:35:51;;;;;;;;;20.33;18.67;;;;;;;;5111334;28;11475;-76
2022/12/18 00:38:16;;;;;;;;;17.00;17.00;;;;;;;;5111400;28;8928;-76
2022/12/18 00:40:41;;;;;;;;;21.25;17.50;;;;;;;;5111445;28;8781;-76
2022/12/18 00:43:06;;;;;;;;;17.00;15.00;;;;;;;;5111137;28;8785;-76
2022/12/18 00:45:32;;;;;;;;;23.33;18.00;;;;;;;;5110465;28;8786;-75
2022/12/18 00:47:57;;;;;;;;;12.33;12.33;;;;;;;;5110981;28;9511;-75
2022/12/18 00:50:23;;;;;;;;;22.33;20.33;;;;;;;;5111062;28;8824;-75
2022/12/18 00:52:49;;;;;;;;;19.33;18.67;;;;;;;;5111211;28;8939;-74
2022/12/18 00:55:14;;;;;;;;;18.67;18.00;;;;;;;;5109511;28;11482;-74
2022/12/18 00:57:40;;;;;;;;;21.00;17.33;;;;;;;;5110923;28;8766;-75
2022/12/18 01:00:07;;;;;;;;;23.67;15.00;;;;;;;;5111553;28;8873;-75
2022/12/18 01:02:32;;;;;;;;;17.67;17.00;;;;;;;;5110893;28;8789;-74
2022/12/18 01:04:57;;;;;;;;;20.75;14.00;;;;;;;;5110753;28;11502;-75
2022/12/18 01:07:23;;;;;;;;;17.00;15.00;;;;;;;;5110789;28;8781;-75
2022/12/18 01:09:48;;;;;;;;;17.00;17.00;;;;;;;;5110823;28;8797;-75
2022/12/18 01:12:13;;;;;;;;;22.00;20.67;;;;;;;;5110697;28;8897;-76
2022/12/18 01:14:38;;;;;;;;;21.00;15.00;;;;;;;;5110767;28;8798;-76
2022/12/18 01:17:04;;;;;;;;;18.00;17.00;;;;;;;;5110419;28;8824;-75
2022/12/18 01:19:29;;;;;;;;;18.67;17.00;;;;;;;;5110770;28;8809;-76
2022/12/18 01:21:55;;;;;;;;;18.00;16.33;;;;;;;;5110719;28;8871;-75
2022/12/18 01:24:20;;;;;;;;;20.67;18.00;;;;;;;;5110696;28;8762;-77
2022/12/18 01:26:45;;;;;;;;;23.33;18.33;;;;;;;;5109097;28;8821;-75
2022/12/18 01:29:11;;;;;;;;;17.00;15.33;;;;;;;;5110895;28;8781;-73
2022/12/18 01:31:36;;;;;;;;;16.67;15.67;;;;;;;;5110799;28;8785;-75
2022/12/18 01:34:02;;;;;;;;;8.00;8.00;;;;;;;;5110629;28;8778;-74
2022/12/18 01:36:29;;;;;;;;;15.00;15.00;;;;;;;;5110508;28;8838;-75
2022/12/18 01:38:54;;;;;;;;;19.50;16.00;;;;;;;;5110335;28;11592;-75
2022/12/18 01:41:21;;;;;;;;;16.25;14.00;;;;;;;;5110343;28;11459;-74
2022/12/18 01:43:54;;;;;;;;;16.75;13.25;;;;;;;;5110574;28;8773;-75
2022/12/18 01:46:21;;;;;;;;;14.25;10.75;;;;;;;;5109011;28;11600;-75
2022/12/18 01:48:50;;;;;;;;;14.75;14.50;;;;;;;;5110727;28;11497;-75
2022/12/18 01:51:16;;;;;;;;;16.75;14.50;;;;;;;;5111083;28;11495;-75
2022/12/18 01:53:42;;;;;;;;;18.75;16.75;;;;;;;;5109391;28;11490;-75
2022/12/18 01:56:08;;;;;;;;;14.25;13.25;;;;;;;;5110341;28;8908;-75
2022/12/18 01:58:46;;;;;;;;;14.50;14.50;;;;;;;;5109283;28;8887;-76
2022/12/18 02:01:11;;;;;;;;;15.33;13.00;;;;;;;;5109559;28;11481;-76
2022/12/18 02:03:37;;;;;;;;;19.25;14.50;;;;;;;;5110301;28;11483;-76
2022/12/18 02:06:05;;;;;;;;;16.00;16.00;;;;;;;;5110299;28;8774;-76
2022/12/18 02:08:37;;;;;;;;;17.75;16.25;;;;;;;;5110308;28;9562;-75
2022/12/18 02:11:21;;;;;;;;;20.00;18.00;;;;;;;;5110190;28;12225;-76
2022/12/18 02:13:46;;;;;;;;;17.00;14.00;;;;;;;;5110321;28;11597;-75
2022/12/18 02:16:11;;;;;;;;;14.00;13.50;;;;;;;;5110319;28;11496;-76
2022/12/18 02:18:38;;;;;;;;;21.00;17.00;;;;;;;;5110067;28;8836;-75
2022/12/18 02:21:24;;;;;;;;;16.67;16.00;;;;;;;;5110225;28;8785;-75
2022/12/18 02:24:08;;;;;;;;;11.00;11.00;;;;;;;;5098378;28;11662;-76
2022/12/18 02:26:33;;;;;;;;;14.67;13.00;;;;;;;;5112596;28;11460;-76
2022/12/18 02:29:02;;;;;;;;;4.00;2.00;;;;;;;;5113739;28;11472;-75
2022/12/18 02:31:30;;;;;;;;;16.67;13.00;;;;;;;;5113521;28;8781;-75
2022/12/18 02:33:57;;;;;;;;;16.33;13.33;;;;;;;;5113080;28;11534;-74
2022/12/18 02:36:24;;;;;;;;;13.00;8.00;;;;;;;;5113520;28;11471;-75
2022/12/18 02:38:50;;;;;;;;;12.33;10.67;;;;;;;;5113352;27;11541;-75
2022/12/18 02:41:16;;;;;;;;;15.33;10.67;;;;;;;;5113383;28;11491;-74
2022/12/18 02:43:46;;;;;;;;;13.67;11.00;;;;;;;;5112032;28;11623;-74
2022/12/18 02:46:27;;;;;;;;;11.67;10.67;;;;;;;;5113181;28;11401;-74
2022/12/18 02:48:55;;;;;;;;;13.00;11.67;;;;;;;;5113488;28;11462;-75
2022/12/18 02:51:32;;;;;;;;;13.25;11.50;;;;;;;;5113471;28;11547;-75
2022/12/18 02:54:09;;;;;;;;;15.25;10.75;;;;;;;;5113298;28;11601;-75
2022/12/18 02:57:00;;;;;;;;;13.00;13.00;;;;;;;;5113225;28;11448;-75
2022/12/18 02:59:34;;;;;;;;;13.33;11.67;;;;;;;;5109761;28;11543;-76
2022/12/18 03:02:14;;;;;;;;;10.00;10.00;;;;;;;;5113538;28;12656;-76
2022/12/18 03:04:43;;;;;;;;;15.67;14.00;;;;;;;;5113040;28;11478;-75
2022/12/18 03:07:11;;;;;;;;;13.00;13.00;;;;;;;;5112999;28;11480;-75
2022/12/18 03:09:39;;;;;;;;;13.00;10.00;;;;;;;;5112958;28;11488;-75
2022/12/18 03:12:23;;;;;;;;;11.00;11.00;;;;;;;;5112814;28;11486;-75
2022/12/18 03:15:03;;;;;;;;;16.00;13.33;;;;;;;;5112930;28;12270;-75
2022/12/18 03:17:31;;;;;;;;;13.00;13.00;;;;;;;;5112491;28;11459;-75
2022/12/18 03:19:58;;;;;;;;;13.25;10.00;;;;;;;;5112967;27;11489;-75
2022/12/18 03:22:24;;;;;;;;;14.33;13.67;;;;;;;;5112788;28;11457;-75
2022/12/18 03:24:51;;;;;;;;;14.00;14.00;;;;;;;;5112950;28;11573;-74
2022/12/18 03:27:19;;;;;;;;;11.00;11.00;;;;;;;;5112801;28;11478;-74
2022/12/18 03:29:50;;;;;;;;;9.33;9.33;;;;;;;;5111172;28;11579;-75
2022/12/18 03:32:20;;;;;;;;;13.50;11.50;;;;;;;;5112655;28;11481;-74
2022/12/18 03:34:49;;;;;;;;;13.75;11.00;;;;;;;;5112505;28;11534;-75
2022/12/18 03:37:14;;;;;;;;;13.75;13.75;;;;;;;;5112404;28;11458;-75
2022/12/18 03:39:39;;;;;;;;;14.50;13.50;;;;;;;;5112356;28;11637;-75
2022/12/18 03:42:08;;;;;;;;;14.25;13.25;;;;;;;;5112400;28;8812;-75
2022/12/18 03:44:42;;;;;;;;;7.50;6.50;;;;;;;;5111002;28;8801;-75
2022/12/18 03:47:09;;;;;;;;;11.00;11.00;;;;;;;;5112422;27;11521;-75
2022/12/18 03:49:38;;;;;;;;;12.00;10.50;;;;;;;;5112515;28;11447;-74
2022/12/18 03:52:09;;;;;;;;;13.50;7.50;;;;;;;;5112265;28;11459;-74
2022/12/18 03:54:35;;;;;;;;;18.00;11.00;;;;;;;;5112214;28;11477;-75
2022/12/18 03:57:04;;;;;;;;;15.25;14.75;;;;;;;;5111823;28;11657;-75
2022/12/18 03:59:30;;;;;;;;;15.50;9.00;;;;;;;;5111976;28;11615;-74
2022/12/18 04:01:57;;;;;;;;;14.25;11.50;;;;;;;;5112388;27;11603;-75
2022/12/18 04:04:24;;;;;;;;;10.75;8.50;;;;;;;;5112009;28;11474;-75
2022/12/18 04:06:50;;;;;;;;;16.00;10.00;;;;;;;;5111394;28;11554;-75
2022/12/18 04:09:15;;;;;;;;;15.00;11.75;;;;;;;;5111563;28;11460;-77
2022/12/18 04:11:43;;;;;;;;;12.00;12.00;;;;;;;;5111612;28;11522;-76
2022/12/18 04:14:09;;;;;;;;;16.00;14.00;;;;;;;;5111781;28;8789;-75
2022/12/18 04:16:34;;;;;;;;;13.67;11.67;;;;;;;;5111620;28;11581;-73
2022/12/18 04:18:59;;;;;;;;;13.25;10.25;;;;;;;;5111388;28;8825;-78
2022/12/18 04:21:24;;;;;;;;;15.33;14.00;;;;;;;;5110463;28;8785;-75
2022/12/18 04:23:50;;;;;;;;;13.75;10.25;;;;;;;;5110325;28;8817;-73
2022/12/18 04:26:15;;;;;;;;;18.33;15.00;;;;;;;;5104568;28;8942;-72
2022/12/18 04:28:40;;;;;;;;;14.33;13.00;;;;;;;;5097790;28;8832;-73
2022/12/18 04:31:06;;;;;;;;;12.67;11.67;;;;;;;;5100839;28;8812;-73
2022/12/18 04:33:31;;;;;;;;;10.33;9.67;;;;;;;;5091324;28;8780;-79
2022/12/18 04:35:56;;;;;;;;;12.33;12.33;;;;;;;;5097242;28;8801;-80
2022/12/18 04:38:21;;;;;;;;;12.33;12.00;;;;;;;;5109915;28;8829;-82
2022/12/18 04:40:47;;;;;;;;;11.00;11.00;;;;;;;;5111208;28;8901;-80
2022/12/18 04:43:12;;;;;;;;;11.25;9.00;;;;;;;;5111467;28;9453;-75
2022/12/18 04:45:37;;;;;;;;;5.00;3.00;;;;;;;;5111450;28;8773;-77
2022/12/18 04:48:03;;;;;;;;;14.33;12.33;;;;;;;;5110910;28;8790;-76
2022/12/18 04:50:29;;;;;;;;;12.00;12.00;;;;;;;;5111380;28;8781;-75
2022/12/18 04:52:54;;;;;;;;;10.00;8.75;;;;;;;;5111058;28;11614;-78
2022/12/18 04:55:20;;;;;;;;;10.50;9.00;;;;;;;;5109539;28;8908;-75
2022/12/18 04:57:45;;;;;;;;;13.00;9.50;;;;;;;;5108202;28;8817;-76
2022/12/18 05:00:11;;;;;;;;;11.00;11.00;;;;;;;;5110034;28;8817;-75
2022/12/18 05:02:36;;;;;;;;;15.75;12.00;;;;;;;;5109386;28;8797;-74
2022/12/18 05:05:01;;;;;;;;;16.33;9.67;;;;;;;;5109629;28;8913;-76
2022/12/18 05:07:26;;;;;;;;;14.25;12.00;;;;;;;;5109570;28;9624;-76
2022/12/18 05:09:52;;;;;;;;;13.00;9.50;;;;;;;;5109161;28;8805;-75
2022/12/18 05:12:17;;;;;;;;;14.33;14.33;;;;;;;;5109061;28;9650;-75
2022/12/18 05:14:42;;;;;;;;;9.25;6.00;;;;;;;;5109406;28;8794;-80
2022/12/18 05:17:07;;;;;;;;;13.75;13.75;;;;;;;;5109521;28;8906;-76
2022/12/18 05:19:33;;;;;;;;;13.00;12.00;;;;;;;;5109437;28;8836;-77
2022/12/18 05:21:58;;;;;;;;;14.67;13.00;;;;;;;;5109489;28;8798;-75
2022/12/18 05:24:23;;;;;;;;;13.67;13.00;;;;;;;;5109313;28;8781;-78
2022/12/18 05:26:49;;;;;;;;;16.33;13.67;;;;;;;;5108152;28;8805;-77
2022/12/18 05:29:14;;;;;;;;;16.67;13.00;;;;;;;;5109030;28;8802;-78
2022/12/18 05:31:39;;;;;;;;;17.00;12.67;;;;;;;;5105581;28;8797;-78
2022/12/18 05:34:05;;;;;;;;;10.33;10.33;;;;;;;;5108277;28;8786;-79
2022/12/18 05:36:30;;;;;;;;;11.33;10.00;;;;;;;;5108480;28;8820;-85
2022/12/18 05:38:55;;;;;;;;;12.00;10.00;;;;;;;;5108153;28;8837;-78
2022/12/18 05:41:21;;;;;;;;;13.33;10.67;;;;;;;;5107056;28;8790;-80
2022/12/18 05:43:46;;;;;;;;;11.67;11.00;;;;;;;;5108380;28;8821;-88
2022/12/18 05:46:12;;;;;;;;;10.00;10.00;;;;;;;;5108412;28;8813;-82
2022/12/18 05:48:38;;;;;;;;;12.33;12.00;;;;;;;;5108638;28;8989;-76
2022/12/18 05:51:05;;;;;;;;;9.67;9.00;;;;;;;;5108393;28;12274;-76
2022/12/18 05:53:30;;;;;;;;;15.67;12.00;;;;;;;;5109270;28;8777;-74
2022/12/18 05:55:59;;;;;;;;;12.67;8.00;;;;;;;;5109100;28;11504;-78
2022/12/18 05:58:24;;;;;;;;;13.00;11.00;;;;;;;;5107904;28;8836;-74
2022/12/18 06:00:49;;;;;;;;;11.00;8.00;;;;;;;;5110616;28;12294;-74
2022/12/18 06:03:15;;;;;;;;;5.50;5.25;;;;;;;;5113090;28;8796;-73
2022/12/18 06:05:41;;;;;;;;;14.33;12.00;;;;;;;;5112967;28;8789;-74
2022/12/18 06:08:07;;;;;;;;;12.67;9.67;;;;;;;;5113328;28;8886;-79
2022/12/18 06:10:32;;;;;;;;;11.50;11.50;;;;;;;;5113113;28;11452;-78
2022/12/18 06:12:58;;;;;;;;;10.50;8.75;;;;;;;;5112664;28;9603;-78
2022/12/18 06:15:24;;;;;;;;;8.00;5.00;;;;;;;;5110978;28;8809;-74
2022/12/18 06:17:49;;;;;;;;;8.00;8.00;;;;;;;;5112697;28;8832;-73
2022/12/18 06:20:14;;;;;;;;;9.75;6.00;;;;;;;;5111368;28;12182;-73
2022/12/18 06:22:40;;;;;;;;;7.50;7.50;;;;;;;;5112656;28;8797;-73
2022/12/18 06:25:05;;;;;;;;;9.75;7.00;;;;;;;;5112519;28;8804;-73
2022/12/18 06:27:31;;;;;;;;;10.33;9.00;;;;;;;;5112662;28;8797;-73
2022/12/18 06:29:56;;;;;;;;;8.00;7.00;;;;;;;;5112750;28;8844;-73
2022/12/18 06:32:22;;;;;;;;;9.67;7.00;;;;;;;;5112835;28;8856;-73
2022/12/18 06:34:47;;;;;;;;;4.50;4.50;;;;;;;;5112532;28;8774;-73
2022/12/18 06:37:12;;;;;;;;;12.33;9.67;;;;;;;;5112275;28;8804;-73
2022/12/18 06:39:38;;;;;;;;;11.00;11.00;;;;;;;;5112293;27;8821;-73
2022/12/18 06:42:03;;;;;;;;;13.00;11.33;;;;;;;;5112298;28;8801;-73
2022/12/18 06:44:28;;;;;;;;;7.50;7.50;;;;;;;;5112302;28;8801;-73
2022/12/18 06:46:53;;;;;;;;;7.50;6.00;;;;;;;;5112140;28;8808;-73
2022/12/18 06:49:19;;;;;;;;;6.00;6.00;;;;;;;;5112119;28;8805;-72
2022/12/18 06:51:44;;;;;;;;;8.75;5.75;;;;;;;;5112273;28;9705;-73
2022/12/18 06:54:09;;;;;;;;;8.00;5.00;;;;;;;;5112087;28;8808;-73
2022/12/18 06:56:34;;;;;;;;;13.00;8.75;;;;;;;;5110723;28;8881;-73
2022/12/18 06:59:00;;;;;;;;;14.00;9.00;;;;;;;;5109148;28;9581;-74
2022/12/18 07:01:25;;;;;;;;;12.50;11.00;;;;;;;;5111917;28;8821;-72
2022/12/18 07:03:55;;;;;;;;;10.50;8.50;;;;;;;;5112055;28;8789;-72
2022/12/18 07:06:21;;;;;;;;;9.75;9.75;;;;;;;;5109177;28;9535;-73
2022/12/18 07:08:47;;;;;;;;;10.25;8.00;;;;;;;;5111787;28;11600;-73
2022/12/18 07:11:12;;;;;;;;;8.75;8.75;;;;;;;;5111364;28;11428;-73
2022/12/18 07:13:38;;;;;;;;;7.00;6.50;;;;;;;;5110443;28;8838;-73
2022/12/18 07:16:11;;;;;;;;;8.50;7.00;;;;;;;;5112041;28;8817;-73
2022/12/18 07:18:36;;;;;;;;;5.50;5.50;;;;;;;;5111720;28;8868;-73
2022/12/18 07:21:05;;;;;;;;;7.50;7.50;;;;;;;;5111644;28;11428;-73
2022/12/18 07:23:32;;;;;;;;;10.25;7.00;;;;;;;;5111728;28;8828;-72
2022/12/18 07:26:00;;;;;;;;;9.00;6.00;;;;;;;;5111435;28;11458;-72
2022/12/18 07:28:25;;;;;;;;;8.50;5.25;;;;;;;;5111433;28;11487;-74
2022/12/18 07:30:50;;;;;;;;;8.25;7.50;;;;;;;;5111575;28;11392;-73
2022/12/18 07:33:16;;;;;;;;;8.75;8.50;;;;;;;;5110087;28;8959;-73
2022/12/18 07:35:41;;;;;;;;;7.25;6.50;;;;;;;;5111352;28;8793;-73
2022/12/18 07:38:06;;;;;;;;;12.25;9.25;;;;;;;;5111210;28;8949;-72
2022/12/18 07:40:31;;;;;;;;;9.00;8.00;;;;;;;;5111339;28;8804;-74
2022/12/18 07:42:57;;;;;;;;;10.00;9.00;;;;;;;;5110984;28;8804;-73
2022/12/18 07:45:22;;;;;;;;;10.00;10.00;;;;;;;;5110909;28;8801;-73
2022/12/18 07:47:47;;;;;;;;;6.75;6.75;;;;;;;;5108757;27;8766;-72
2022/12/18 07:50:13;;;;;;;;;3.00;3.00;;;;;;;;5105213;28;8839;-74
2022/12/18 07:52:38;;;;;;;;;7.50;7.50;;;;;;;;5089297;28;8873;-75
2022/12/18 07:55:03;;;;;;;;;9.25;9.00;;;;;;;;5089423;28;8808;-79
2022/12/18 07:57:29;;;;;;;;;10.50;8.00;;;;;;;;5085190;28;8888;-75
2022/12/18 07:59:54;;;;;;;;;8.50;8.50;;;;;;;;5089816;28;9510;-74
2022/12/18 08:02:20;;;;;;;;;10.50;7.00;;;;;;;;5091392;28;8807;-75
2022/12/18 08:06:03;;;;;;;;;9.00;9.00;;;;;;;;5103294;27;13389;-73
2022/12/18 08:08:28;;;;;;;;;14.50;8.50;;;;;;;;5087045;28;11447;-74
2022/12/18 08:10:54;;;;;;;;;9.00;9.00;;;;;;;;5087240;28;12206;-73
2022/12/18 08:13:19;;;;;;;;;12.75;9.00;;;;;;;;5086530;28;8960;-72
2022/12/18 08:15:44;;;;;;;;;11.50;10.00;;;;;;;;5086167;28;8891;-80
2022/12/18 08:18:10;;;;;;;;;13.00;11.00;;;;;;;;5086409;28;8829;-73
2022/12/18 08:20:35;;;;;;;;;9.75;9.75;;;;;;;;5126807;27;8866;-78
2022/12/18 08:23:00;;;;;;;;;9.00;9.00;;;;;;;;5106823;28;8812;-80
2022/12/18 08:25:25;;;;;;;;;10.00;9.00;;;;;;;;5095948;28;8838;-77
2022/12/18 08:27:51;;;;;;;;;9.00;8.00;;;;;;;;5085079;28;9552;-76
2022/12/18 08:30:16;;;;;;;;;10.75;9.75;;;;;;;;5086259;28;8790;-76
2022/12/18 08:32:41;;;;;;;;;16.00;13.00;;;;;;;;5086045;28;8823;-78
2022/12/18 08:35:08;;;;;;;;;13.00;13.00;;;;;;;;5085151;28;8843;-80
2022/12/18 08:37:33;;;;;;;;;5.75;5.75;;;;;;;;5087013;28;8797;-77
2022/12/18 08:39:58;;;;;;;;;8.00;8.00;;;;;;;;5085421;28;11476;-78
2022/12/18 08:45:08;;;;;;;;;10.50;10.00;;;;;;;;5080362;28;8830;-75
2022/12/18 08:47:33;;;;;;;;;28.67;24.00;;;;;;;;5086336;28;11521;-74
2022/12/18 08:49:58;;;;;;;;;16.25;11.50;;;;;;;;5085481;28;8826;-75
2022/12/18 08:52:24;;;;;;;;;7.25;7.25;;;;;;;;5085339;28;8864;-75
2022/12/18 08:54:49;;;;;;;;;9.75;6.00;;;;;;;;5082797;28;9564;-75
2022/12/18 08:57:14;;;;;;;;;9.50;7.75;;;;;;;;5084525;28;8830;-75
2022/12/18 08:59:40;;;;;;;;;8.50;6.75;;;;;;;;5098561;28;8772;-83
2022/12/18 09:02:05;;;;;;;;;7.25;6.00;;;;;;;;5105973;28;8833;-75
2022/12/18 09:04:31;;;;;;;;;11.25;8.00;;;;;;;;5104650;28;8852;-78
2022/12/18 09:06:56;;;;;;;;;4.50;4.00;;;;;;;;5108103;28;9507;-75
2022/12/18 09:09:21;;;;;;;;;3.75;3.00;;;;;;;;5093225;28;8810;-79
2022/12/18 09:11:47;;;;;;;;;9.25;7.25;;;;;;;;5086361;28;8787;-78
2022/12/18 09:14:12;;;;;;;;;6.00;6.00;;;;;;;;5086581;28;8821;-78
2022/12/18 09:16:37;;;;;;;;;9.50;6.50;;;;;;;;5095176;28;8796;-74
2022/12/18 09:19:03;;;;;;;;;21.25;19.50;;;;;;;;5079227;28;8818;-78
2022/12/18 09:21:33;;;;;;;;;5.00;5.00;;;;;;;;5073074;28;9006;-77
2022/12/18 09:23:59;;;;;;;;;13.25;7.25;;;;;;;;5072534;28;10992;-77
2022/12/18 09:26:25;;;;;;;;;7.75;6.00;;;;;;;;5072498;28;11544;-78
2022/12/18 09:28:50;;;;;;;;;7.75;6.25;;;;;;;;5078077;28;8807;-78
2022/12/18 09:31:17;;;;;;;;;7.00;7.00;;;;;;;;5092726;28;11541;-77
2022/12/18 09:33:42;;;;;;;;;5.00;5.00;;;;;;;;5089603;28;8922;-75
2022/12/18 09:36:09;;;;;;;;;10.25;7.50;;;;;;;;5071398;28;11544;-76
2022/12/18 09:38:35;;;;;;;;;9.00;9.00;;;;;;;;5070501;28;8822;-77
2022/12/18 09:56:12;;;;;;;;;5.75;5.75;;;;;;;;4993203;27;13415;-84
2022/12/18 09:58:44;;;;;;;;;8.00;8.00;;;;;;;;5064077;28;11531;-82
2022/12/18 10:01:18;;;;;;;;;6.00;4.00;;;;;;;;5065352;28;11487;-82
2022/12/18 10:03:43;;;;;;;;;2.00;2.00;;;;;;;;5073209;28;11463;-84
2022/12/18 10:06:15;;;;;;;;;2.00;1.00;;;;;;;;5070505;28;11464;-81
2022/12/18 10:08:40;;;;;;;;;1.50;1.50;;;;;;;;5047661;28;8838;-80
2022/12/18 10:11:25;;;;;;;;;2.00;1.50;;;;;;;;5047133;28;11468;-79
2022/12/18 10:13:57;;;;;;;;;1.50;1.50;;;;;;;;5039201;28;8835;-79
2022/12/18 10:16:22;;;;;;;;;4.25;4.25;;;;;;;;5047152;28;12362;-81
2022/12/18 10:18:53;;;;;;;;;2.00;2.00;;;;;;;;5057537;28;11487;-79
2022/12/18 10:21:30;;;;;;;;;2.50;2.50;;;;;;;;5067299;28;8817;-80
2022/12/18 10:24:02;;;;;;;;;5.00;4.75;;;;;;;;5080352;28;11452;-81
2022/12/18 10:26:27;;;;;;;;;4.00;2.00;;;;;;;;5087165;28;11450;-80
2022/12/18 10:28:53;;;;;;;;;6.00;4.25;;;;;;;;5087227;28;11473;-82
2022/12/18 10:31:22;;;;;;;;;7.00;4.50;;;;;;;;5087346;28;8795;-80
2022/12/18 10:33:48;;;;;;;;;8.00;5.00;;;;;;;;5083816;28;11574;-80
2022/12/18 10:36:13;;;;;;;;;4.25;4.00;;;;;;;;5086982;28;11549;-81
2022/12/18 10:38:38;;;;;;;;;13.75;10.25;;;;;;;;5087008;28;8787;-79
2022/12/18 10:41:09;;;;;;;;;9.00;6.00;;;;;;;;5087408;28;8791;-80
2022/12/18 10:43:40;;;;;;;;;9.25;6.00;;;;;;;;5072146;28;8843;-79
2022/12/18 10:46:09;;;;;;;;;7.00;6.00;;;;;;;;5064868;28;11508;-78
2022/12/18 10:48:40;;;;;;;;;13.00;7.50;;;;;;;;5055392;28;11508;-81
2022/12/18 10:51:06;;;;;;;;;7.50;5.00;;;;;;;;5061835;28;11511;-81
2022/12/18 10:53:32;;;;;;;;;6.25;4.00;;;;;;;;5053179;28;12206;-82
2022/12/18 10:55:58;;;;;;;;;11.25;8.00;;;;;;;;5065022;28;10004;-82
2022/12/18 10:58:24;;;;;;;;;10.75;9.25;;;;;;;;5066405;28;11658;-83
2022/12/18 11:01:01;;;;;;;;;8.25;6.50;;;;;;;;5065190;28;8814;-82
2022/12/18 11:03:37;;;;;;;;;8.50;6.00;;;;;;;;5059002;28;8802;-85
2022/12/18 11:06:04;;;;;;;;;5.50;5.50;;;;;;;;5055488;28;12244;-83
2022/12/18 11:08:30;;;;;;;;;4.00;4.00;;;;;;;;5066870;28;12385;-81
2022/12/18 11:10:55;;;;;;;;;4.25;4.25;;;;;;;;5073785;28;11173;-81
2022/12/18 11:13:21;;;;;;;;;5.00;3.00;;;;;;;;5060932;28;8840;-81
2022/12/18 11:15:47;;;;;;;;;7.00;4.75;;;;;;;;5053284;28;8836;-78
2022/12/18 11:18:22;;;;;;;;;7.50;4.75;;;;;;;;5054863;28;9782;-82
2022/12/18 11:20:55;;;;;;;;;8.33;5.00;;;;;;;;5058698;28;11522;-81
2022/12/18 11:23:22;;;;;;;;;5.00;4.00;;;;;;;;5055792;28;9283;-81
2022/12/18 11:25:52;;;;;;;;;8.00;5.50;;;;;;;;5073427;28;8889;-80
2022/12/18 11:28:29;;;;;;;;;8.00;8.00;;;;;;;;5073649;28;8782;-80
2022/12/18 11:31:09;;;;;;;;;4.25;3.75;;;;;;;;5071655;28;9035;-81
2022/12/18 11:33:35;;;;;;;;;4.50;4.00;;;;;;;;5057390;28;8816;-80
2022/12/18 11:36:03;;;;;;;;;4.00;4.00;;;;;;;;5053597;28;8809;-82
2022/12/18 11:38:31;;;;;;;;;2.00;2.00;;;;;;;;5054124;28;8813;-80
2022/12/18 11:40:59;;;;;;;;;2.25;2.00;;;;;;;;5054046;28;8811;-80
2022/12/18 11:43:28;;;;;;;;;2.25;2.25;;;;;;;;5062583;28;8822;-80
2022/12/18 11:45:56;;;;;;;;;2.33;2.00;;;;;;;;5072847;28;8795;-80
2022/12/18 11:48:33;;;;;;;;;3.67;2.33;;;;;;;;5066140;28;8938;-82
2022/12/18 11:51:01;;;;;;;;;2.00;2.00;;;;;;;;5068654;28;9142;-81
2022/12/18 11:53:27;;;;;;;;;2.00;2.00;;;;;;;;5050935;28;9420;-82
2022/12/18 11:56:05;;;;;;;;;76.75;61.25;;;;;;;;5050517;28;9711;-81
2022/12/18 11:58:30;;;;;;;;;39.00;31.00;;;;;;;;5052758;28;8848;-80
2022/12/18 12:00:55;;;;;;;;;3.00;2.00;;;;;;;;5052401;28;11474;-80
2022/12/18 12:03:30;;;;;;;;;2.75;2.00;;;;;;;;5060651;28;8802;-82
2022/12/18 12:05:55;;;;;;;;;6.00;2.75;;;;;;;;5071947;28;8837;-82
2022/12/18 12:08:38;;;;;;;;;2.00;2.00;;;;;;;;5071690;28;10160;-84
2022/12/18 12:11:33;;;;;;;;;2.00;2.00;;;;;;;;5072020;28;8779;-80
2022/12/18 12:14:16;;;;;;;;;1.00;1.00;;;;;;;;5046795;28;10445;-83
2022/12/18 12:17:02;;;;;;;;;1.00;1.00;;;;;;;;5070038;28;10399;-81
2022/12/18 12:19:39;;;;;;;;;1.00;1.00;;;;;;;;5056162;28;10619;-82
2022/12/18 12:22:22;;;;;;;;;1.75;1.00;;;;;;;;5050934;28;10882;-76
2022/12/18 12:24:48;;;;;;;;;1.25;0.25;;;;;;;;5045571;28;10856;-84
2022/12/18 12:27:13;;;;;;;;;0.00;0.00;;;;;;;;5050027;28;10963;-82
2022/12/18 12:30:01;;;;;;;;;1.00;1.00;;;;;;;;5051499;28;8793;-82
2022/12/18 12:32:32;;;;;;;;;1.00;1.00;;;;;;;;5044727;28;8849;-78
2022/12/18 12:35:16;;;;;;;;;2.50;1.00;;;;;;;;5050538;28;11431;-78
2022/12/18 12:37:50;;;;;;;;;2.00;2.00;;;;;;;;5050709;28;11254;-76
2022/12/18 12:40:19;;;;;;;;;2.00;2.00;;;;;;;;5051459;28;11942;-82
2022/12/18 12:45:36;;;;;;;;;1.00;0.00;;;;;;;;5070837;28;11074;-84
2022/12/18 12:48:02;;;;;;;;;2.00;1.50;;;;;;;;5063114;28;10914;-81
2022/12/18 12:50:27;;;;;;;;;4.00;1.00;;;;;;;;5049717;28;11491;-82
2022/12/18 12:52:54;;;;;;;;;0.00;0.00;;;;;;;;5049281;28;8835;-82
2022/12/18 12:55:24;;;;;;;;;1.00;1.00;;;;;;;;5046447;28;8869;-80
2022/12/18 12:57:56;;;;;;;;;2.00;1.00;;;;;;;;5049943;28;11578;-81
2022/12/18 13:00:22;;;;;;;;;0.50;0.50;;;;;;;;5046176;28;11430;-82
2022/12/18 13:02:53;;;;;;;;;0.00;0.00;;;;;;;;5049332;28;11406;-82
2022/12/18 13:05:25;;;;;;;;;1.00;1.00;;;;;;;;5046903;28;8825;-80
2022/12/18 13:07:54;;;;;;;;;2.25;2.00;;;;;;;;5048103;28;11435;-80
2022/12/18 13:10:25;;;;;;;;;2.50;2.50;;;;;;;;5048775;28;11559;-77
2022/12/18 13:12:59;;;;;;;;;3.25;3.25;;;;;;;;5045877;28;11530;-80
2022/12/18 13:15:33;;;;;;;;;2.75;2.00;;;;;;;;5048276;28;11523;-81
2022/12/18 13:18:08;;;;;;;;;0.50;0.50;;;;;;;;5048686;28;11418;-80
2022/12/18 13:20:35;;;;;;;;;0.00;0.00;;;;;;;;5060632;28;11534;-79
2022/12/18 13:23:00;;;;;;;;;1.00;1.00;;;;;;;;5043482;28;11426;-78
2022/12/18 13:25:31;;;;;;;;;1.00;1.00;;;;;;;;5012087;28;11437;-77
2022/12/18 13:28:01;;;;;;;;;0.50;0.50;;;;;;;;5052303;28;9603;-80
2022/12/18 13:30:32;;;;;;;;;1.00;1.00;;;;;;;;5050271;28;12524;-69
2022/12/18 13:32:57;;;;;;;;;;;;;;;;;;5051798;28;11519;-74
2022/12/18 13:35:22;;;;;;;;;;;;;;;;;;5068537;28;7627;-74
2022/12/18 13:37:47;;;;;;;;;;;;;;;;;;5072613;28;8497;-74
2022/12/18 13:40:12;;;;;;;;;;;;;;;;;;5070572;28;7670;-76
2022/12/18 13:45:21;;;;;;;;;;;;;;;;;;5071431;28;7524;-75
2022/12/18 13:47:46;;;;;;;;;;;;;;;;;;5069662;28;7532;-74
2022/12/18 13:50:12;;;;;;;;;;;;;;;;;;5051595;28;7521;-74
2022/12/18 13:52:37;;;;;;;;;;;;;;;;;;5050450;28;7532;-76
2022/12/18 13:55:02;;;;;;;;;;;;;;;;;;5051420;28;7533;-74
2022/12/18 13:57:27;;;;;;;;;;;;;;;;;;5051794;28;7555;-79
2022/12/18 13:59:52;;;;;;;;;;;;;;;;;;5034525;28;7529;-81
2022/12/18 14:02:18;;;;;;;;;;;;;;;;;;5033585;28;7518;-77
2022/12/18 14:04:43;;;;;;;;;;;;;;;;;;5051311;28;7532;-76
2022/12/18 14:07:08;;;;;;;;;;;;;;;;;;5049806;28;7544;-77
2022/12/18 14:09:33;;;;;;;;;;;;;;;;;;5050571;28;7521;-85
2022/12/18 14:14:59;;;;;;;;;;;;;;;;;;5008422;28;7556;-81
2022/12/18 14:17:24;;;;;;;;;;;;;;;;;;5009899;28;7533;-80
2022/12/18 14:19:49;;;;;;;;;;;;;;;;;;4991462;28;7530;-81
2022/12/18 14:22:14;;;;;;;;;;;;;;;;;;4990386;28;7553;-80
2022/12/18 14:24:39;;;;;;;;;;;;;;;;;;4990120;28;7934;-80
2022/12/18 14:27:04;;;;;;;;;;;;;;;;;;4990244;28;7533;-78
2022/12/18 14:29:29;;;;;;;;;;;;;;;;;;4990180;28;7552;-82
2022/12/18 14:31:55;;;;;;;;;;;;;;;;;;4983402;28;7530;-75
2022/12/18 14:34:20;;;;;;;;;;;;;;;;;;4978984;28;7553;-75
2022/12/18 14:36:55;;;;;;;;;0.00;0.00;;;;;;;;4976759;28;7537;-75
2022/12/18 14:39:21;;;;;;;;;3.50;1.00;;;;;;;;4980571;28;8849;-77
2022/12/18 14:41:48;;;;;;;;;1.00;1.00;;;;;;;;4986285;28;13581;-82
2022/12/18 14:44:13;;;;;;;;;0.00;0.00;;;;;;;;4987921;28;12319;-88
2022/12/18 14:46:42;;;;;;;;;0.00;0.00;;;;;;;;4982982;28;11933;-86
2022/12/18 14:49:29;;;;;;;;;2.00;0.50;;;;;;;;5022117;28;8793;-84
2022/12/18 14:51:55;;;;;;;;;1.00;1.00;;;;;;;;5078375;28;11450;-87
2022/12/18 14:54:22;;;;;;;;;0.00;0.00;;;;;;;;5050594;28;11442;-85
2022/12/18 14:56:49;;;;;;;;;0.00;0.00;;;;;;;;5049178;28;11419;-83
2022/12/18 14:59:21;;;;;;;;;0.00;0.00;;;;;;;;5052124;28;11519;-81
2022/12/18 15:01:48;;;;;;;;;1.00;1.00;;;;;;;;5065806;28;11412;-80
2022/12/18 15:04:25;;;;;;;;;1.00;1.00;;;;;;;;5052429;28;11492;-78
2022/12/18 15:07:03;;;;;;;;;1.00;1.00;;;;;;;;5050310;28;12116;-80
2022/12/18 15:09:28;;;;;;;;;2.00;0.00;;;;;;;;5048695;28;12146;-77
2022/12/18 15:11:57;;;;;;;;;1.00;1.00;;;;;;;;5051686;28;11401;-78
2022/12/18 15:14:31;;;;;;;;;1.25;1.25;;;;;;;;5051592;28;8813;-78
2022/12/18 15:16:58;;;;;;;;;0.75;0.00;;;;;;;;5052237;28;11552;-77